sensor_id;sensor_type;location;lat;lon;timestamp;temperature;humidity
52323;DHT22;38263;52.920;6.238;2022-10-20T00:01:53;8.50;99.90
52323;DHT22;38263;52.920;6.238;2022-10-20T00:04:19;8.40;99.90
52323;DHT22;38263;52.920;6.238;2022-10-20T00:06:44;8.20;99.90
52323;DHT22;38263;52.920;6.238;2022-10-20T00:09:10;8.20;99.90
52323;DHT22;38263;52.920;6.238;2022-10-20T00:11:35;8.40;99.90
52323;DHT22;38263;52.920;6.238;2022-10-20T00:16:29;8.40;99.90
52323;DHT22;38263;52.920;6.238;2022-10-20T00:18:56;8.40;99.90
52323;DHT22;38263;52.920;6.238;2022-10-20T00:21:24;8.10;99.90
52323;DHT22;38263;52.920;6.238;2022-10-20T00:23:51;8.20;99.90
52323;DHT22;38263;52.920;6.238;2022-10-20T00:26:22;8.20;99.90
52323;DHT22;38263;52.920;6.238;2022-10-20T00:28:49;8.00;99.90
52323;DHT22;38263;52.920;6.238;2022-10-20T00:31:16;8.10;99.90
52323;DHT22;38263;52.920;6.238;2022-10-20T00:33:42;8.00;99.90
52323;DHT22;38263;52.920;6.238;2022-10-20T00:36:11;8.00;99.90
52323;DHT22;38263;52.920;6.238;2022-10-20T00:38:37;8.10;99.90
52323;DHT22;38263;52.920;6.238;2022-10-20T00:41:03;8.00;99.90
52323;DHT22;38263;52.920;6.238;2022-10-20T00:46:23;7.90;99.90
52323;DHT22;38263;52.920;6.238;2022-10-20T00:48:55;7.80;99.90
52323;DHT22;38263;52.920;6.238;2022-10-20T00:51:24;7.90;99.90
52323;DHT22;38263;52.920;6.238;2022-10-20T00:53:52;7.90;99.90
52323;DHT22;38263;52.920;6.238;2022-10-20T00:56:20;7.90;99.90
52323;DHT22;38263;52.920;6.238;2022-10-20T00:58:46;7.80;99.90
52323;DHT22;38263;52.920;6.238;2022-10-20T01:01:13;8.10;99.90
52323;DHT22;38263;52.920;6.238;2022-10-20T01:03:44;7.80;99.90
52323;DHT22;38263;52.920;6.238;2022-10-20T01:06:12;8.00;99.90
52323;DHT22;38263;52.920;6.238;2022-10-20T01:08:38;7.70;99.90
52323;DHT22;38263;52.920;6.238;2022-10-20T01:16:55;7.80;99.90
52323;DHT22;38263;52.920;6.238;2022-10-20T01:19:33;7.90;99.90
52323;DHT22;38263;52.920;6.238;2022-10-20T01:22:29;7.60;99.90
52323;DHT22;38263;52.920;6.238;2022-10-20T01:27:40;7.70;99.90
52323;DHT22;38263;52.920;6.238;2022-10-20T01:30:21;7.90;99.90
52323;DHT22;38263;52.920;6.238;2022-10-20T01:32:52;7.90;99.90
52323;DHT22;38263;52.920;6.238;2022-10-20T01:40:28;7.70;99.90
52323;DHT22;38263;52.920;6.238;2022-10-20T01:45:24;7.70;99.90
52323;DHT22;38263;52.920;6.238;2022-10-20T01:47:52;7.60;99.90
52323;DHT22;38263;52.920;6.238;2022-10-20T01:50:18;7.50;99.90
52323;DHT22;38263;52.920;6.238;2022-10-20T01:52:45;7.50;99.90
52323;DHT22;38263;52.920;6.238;2022-10-20T01:55:13;7.50;99.90
52323;DHT22;38263;52.920;6.238;2022-10-20T02:00:43;7.40;99.90
52323;DHT22;38263;52.920;6.238;2022-10-20T02:11:03;7.30;99.90
52323;DHT22;38263;52.920;6.238;2022-10-20T02:13:30;7.40;99.90
52323;DHT22;38263;52.920;6.238;2022-10-20T02:15:59;7.40;99.90
52323;DHT22;38263;52.920;6.238;2022-10-20T02:18:33;7.30;99.90
52323;DHT22;38263;52.920;6.238;2022-10-20T02:21:02;7.10;99.90
52323;DHT22;38263;52.920;6.238;2022-10-20T02:23:30;7.10;99.90
52323;DHT22;38263;52.920;6.238;2022-10-20T02:25:58;7.00;99.90
52323;DHT22;38263;52.920;6.238;2022-10-20T02:28:26;7.40;99.90
52323;DHT22;38263;52.920;6.238;2022-10-20T02:30:53;7.10;99.90
52323;DHT22;38263;52.920;6.238;2022-10-20T02:33:19;7.00;99.90
52323;DHT22;38263;52.920;6.238;2022-10-20T02:35:56;7.10;99.90
52323;DHT22;38263;52.920;6.238;2022-10-20T02:38:22;7.00;99.90
52323;DHT22;38263;52.920;6.238;2022-10-20T02:40:48;6.90;99.90
52323;DHT22;38263;52.920;6.238;2022-10-20T02:43:13;6.90;99.90
52323;DHT22;38263;52.920;6.238;2022-10-20T02:48:05;6.80;99.90
52323;DHT22;38263;52.920;6.238;2022-10-20T02:50:32;7.00;99.90
52323;DHT22;38263;52.920;6.238;2022-10-20T02:52:58;6.90;99.90
52323;DHT22;38263;52.920;6.238;2022-10-20T02:55:23;6.90;99.90
52323;DHT22;38263;52.920;6.238;2022-10-20T02:57:49;7.00;99.90
52323;DHT22;38263;52.920;6.238;2022-10-20T03:02:41;6.80;99.90
52323;DHT22;38263;52.920;6.238;2022-10-20T03:05:07;6.90;99.90
52323;DHT22;38263;52.920;6.238;2022-10-20T03:07:32;7.00;99.90
52323;DHT22;38263;52.920;6.238;2022-10-20T03:09:58;7.10;99.90
52323;DHT22;38263;52.920;6.238;2022-10-20T03:12:24;6.90;99.90
52323;DHT22;38263;52.920;6.238;2022-10-20T03:14:49;7.10;99.90
52323;DHT22;38263;52.920;6.238;2022-10-20T03:17:15;7.00;99.90
52323;DHT22;38263;52.920;6.238;2022-10-20T03:19:40;7.10;99.90
52323;DHT22;38263;52.920;6.238;2022-10-20T03:22:06;6.90;99.90
52323;DHT22;38263;52.920;6.238;2022-10-20T03:24:31;7.00;99.90
52323;DHT22;38263;52.920;6.238;2022-10-20T03:29:23;7.10;99.90
52323;DHT22;38263;52.920;6.238;2022-10-20T03:31:48;7.10;99.90
52323;DHT22;38263;52.920;6.238;2022-10-20T03:39:06;7.20;99.90
52323;DHT22;38263;52.920;6.238;2022-10-20T03:41:32;7.20;99.90
52323;DHT22;38263;52.920;6.238;2022-10-20T03:43:57;7.20;99.90
52323;DHT22;38263;52.920;6.238;2022-10-20T03:46:23;7.30;99.90
52323;DHT22;38263;52.920;6.238;2022-10-20T03:48:48;7.20;99.90
52323;DHT22;38263;52.920;6.238;2022-10-20T03:53:40;7.20;99.90
52323;DHT22;38263;52.920;6.238;2022-10-20T03:56:07;7.20;99.90
52323;DHT22;38263;52.920;6.238;2022-10-20T03:58:32;7.20;99.90
52323;DHT22;38263;52.920;6.238;2022-10-20T04:03:24;7.20;99.90
52323;DHT22;38263;52.920;6.238;2022-10-20T04:08:15;7.10;99.90
52323;DHT22;38263;52.920;6.238;2022-10-20T04:10:41;7.20;99.90
52323;DHT22;38263;52.920;6.238;2022-10-20T04:13:06;7.20;99.90
52323;DHT22;38263;52.920;6.238;2022-10-20T04:15:32;7.10;99.90
52323;DHT22;38263;52.920;6.238;2022-10-20T04:17:58;7.10;99.90
52323;DHT22;38263;52.920;6.238;2022-10-20T04:20:23;7.20;99.90
52323;DHT22;38263;52.920;6.238;2022-10-20T04:22:49;7.20;99.90
52323;DHT22;38263;52.920;6.238;2022-10-20T04:25:14;7.20;99.90
52323;DHT22;38263;52.920;6.238;2022-10-20T04:27:40;7.10;99.90
52323;DHT22;38263;52.920;6.238;2022-10-20T04:30:07;7.20;99.90
52323;DHT22;38263;52.920;6.238;2022-10-20T04:32:33;7.30;99.90
52323;DHT22;38263;52.920;6.238;2022-10-20T04:34:59;7.30;99.90
52323;DHT22;38263;52.920;6.238;2022-10-20T04:37:24;7.20;99.90
52323;DHT22;38263;52.920;6.238;2022-10-20T04:39:50;7.10;99.90
52323;DHT22;38263;52.920;6.238;2022-10-20T04:42:16;7.10;99.90
52323;DHT22;38263;52.920;6.238;2022-10-20T04:47:08;7.10;99.90
52323;DHT22;38263;52.920;6.238;2022-10-20T04:49:34;7.10;99.90
52323;DHT22;38263;52.920;6.238;2022-10-20T04:51:59;7.10;99.90
52323;DHT22;38263;52.920;6.238;2022-10-20T04:54:25;7.10;99.90
52323;DHT22;38263;52.920;6.238;2022-10-20T04:59:16;7.10;99.90
52323;DHT22;38263;52.920;6.238;2022-10-20T05:01:42;7.20;99.90
52323;DHT22;38263;52.920;6.238;2022-10-20T05:04:08;7.30;99.90
52323;DHT22;38263;52.920;6.238;2022-10-20T05:06:34;7.20;99.90
52323;DHT22;38263;52.920;6.238;2022-10-20T05:09:03;7.30;99.90
52323;DHT22;38263;52.920;6.238;2022-10-20T05:11:30;7.10;99.90
52323;DHT22;38263;52.920;6.238;2022-10-20T05:13:56;7.20;99.90
52323;DHT22;38263;52.920;6.238;2022-10-20T05:16:22;7.10;99.90
52323;DHT22;38263;52.920;6.238;2022-10-20T05:18:48;6.90;99.90
52323;DHT22;38263;52.920;6.238;2022-10-20T05:21:18;7.10;99.90
52323;DHT22;38263;52.920;6.238;2022-10-20T05:23:44;7.00;99.90
52323;DHT22;38263;52.920;6.238;2022-10-20T05:26:12;7.00;99.90
52323;DHT22;38263;52.920;6.238;2022-10-20T05:28:42;7.10;99.90
52323;DHT22;38263;52.920;6.238;2022-10-20T05:31:08;7.10;99.90
52323;DHT22;38263;52.920;6.238;2022-10-20T05:33:34;7.10;99.90
52323;DHT22;38263;52.920;6.238;2022-10-20T05:38:31;7.10;99.90
52323;DHT22;38263;52.920;6.238;2022-10-20T05:41:05;7.10;99.90
52323;DHT22;38263;52.920;6.238;2022-10-20T05:43:31;7.10;99.90
52323;DHT22;38263;52.920;6.238;2022-10-20T05:45:57;7.20;99.90
52323;DHT22;38263;52.920;6.238;2022-10-20T05:48:22;7.10;99.90
52323;DHT22;38263;52.920;6.238;2022-10-20T05:50:48;7.20;99.90
52323;DHT22;38263;52.920;6.238;2022-10-20T05:53:13;7.20;99.90
52323;DHT22;38263;52.920;6.238;2022-10-20T05:55:39;6.90;99.90
52323;DHT22;38263;52.920;6.238;2022-10-20T05:58:04;6.90;99.90
52323;DHT22;38263;52.920;6.238;2022-10-20T06:03:05;6.90;99.90
52323;DHT22;38263;52.920;6.238;2022-10-20T06:05:31;6.80;99.90
52323;DHT22;38263;52.920;6.238;2022-10-20T06:07:56;7.00;99.90
52323;DHT22;38263;52.920;6.238;2022-10-20T06:10:22;7.10;99.90
52323;DHT22;38263;52.920;6.238;2022-10-20T06:12:48;6.80;99.90
52323;DHT22;38263;52.920;6.238;2022-10-20T06:15:14;7.10;99.90
52323;DHT22;38263;52.920;6.238;2022-10-20T06:20:06;7.00;99.90
52323;DHT22;38263;52.920;6.238;2022-10-20T06:22:32;7.10;99.90
52323;DHT22;38263;52.920;6.238;2022-10-20T06:29:49;7.10;99.90
52323;DHT22;38263;52.920;6.238;2022-10-20T06:32:14;7.30;99.90
52323;DHT22;38263;52.920;6.238;2022-10-20T06:34:42;7.10;99.90
52323;DHT22;38263;52.920;6.238;2022-10-20T06:37:09;7.10;99.90
52323;DHT22;38263;52.920;6.238;2022-10-20T06:39:34;7.00;99.90
52323;DHT22;38263;52.920;6.238;2022-10-20T06:44:27;7.10;99.90
52323;DHT22;38263;52.920;6.238;2022-10-20T06:46:53;7.20;99.90
52323;DHT22;38263;52.920;6.238;2022-10-20T06:49:19;7.30;99.90
52323;DHT22;38263;52.920;6.238;2022-10-20T06:51:45;7.30;99.90
52323;DHT22;38263;52.920;6.238;2022-10-20T06:54:11;7.30;99.90
52323;DHT22;38263;52.920;6.238;2022-10-20T06:59:04;7.40;99.90
52323;DHT22;38263;52.920;6.238;2022-10-20T07:01:32;7.30;99.90
52323;DHT22;38263;52.920;6.238;2022-10-20T07:06:31;7.30;99.90
52323;DHT22;38263;52.920;6.238;2022-10-20T07:08:58;7.50;99.90
52323;DHT22;38263;52.920;6.238;2022-10-20T07:11:26;7.30;99.90
52323;DHT22;38263;52.920;6.238;2022-10-20T07:13:52;7.50;99.90
52323;DHT22;38263;52.920;6.238;2022-10-20T07:16:23;7.50;99.90
52323;DHT22;38263;52.920;6.238;2022-10-20T07:18:49;7.60;99.90
52323;DHT22;38263;52.920;6.238;2022-10-20T07:21:17;7.80;99.90
52323;DHT22;38263;52.920;6.238;2022-10-20T07:26:13;7.80;99.90
52323;DHT22;38263;52.920;6.238;2022-10-20T07:28:42;7.50;99.90
52323;DHT22;38263;52.920;6.238;2022-10-20T07:33:38;7.90;99.90
52323;DHT22;38263;52.920;6.238;2022-10-20T07:36:33;7.80;99.90
52323;DHT22;38263;52.920;6.238;2022-10-20T07:39:01;8.00;99.90
52323;DHT22;38263;52.920;6.238;2022-10-20T07:43:55;8.10;99.90
52323;DHT22;38263;52.920;6.238;2022-10-20T07:46:21;8.20;99.90
52323;DHT22;38263;52.920;6.238;2022-10-20T07:48:47;8.20;99.90
52323;DHT22;38263;52.920;6.238;2022-10-20T07:56:10;8.40;99.90
52323;DHT22;38263;52.920;6.238;2022-10-20T07:58:36;8.50;99.90
52323;DHT22;38263;52.920;6.238;2022-10-20T08:01:02;8.60;99.90
52323;DHT22;38263;52.920;6.238;2022-10-20T08:03:28;8.60;99.90
52323;DHT22;38263;52.920;6.238;2022-10-20T08:05:53;8.80;99.90
52323;DHT22;38263;52.920;6.238;2022-10-20T08:10:45;8.70;99.90
52323;DHT22;38263;52.920;6.238;2022-10-20T08:13:10;8.70;99.90
52323;DHT22;38263;52.920;6.238;2022-10-20T08:18:02;8.70;99.90
52323;DHT22;38263;52.920;6.238;2022-10-20T08:20:28;8.90;99.90
52323;DHT22;38263;52.920;6.238;2022-10-20T08:25:19;9.10;99.90
52323;DHT22;38263;52.920;6.238;2022-10-20T08:27:45;9.30;99.90
52323;DHT22;38263;52.920;6.238;2022-10-20T08:37:29;9.70;99.90
52323;DHT22;38263;52.920;6.238;2022-10-20T08:39:55;10.10;99.90
52323;DHT22;38263;52.920;6.238;2022-10-20T08:42:21;10.30;99.90
52323;DHT22;38263;52.920;6.238;2022-10-20T08:44:47;10.70;99.90
52323;DHT22;38263;52.920;6.238;2022-10-20T08:52:13;11.30;99.90
52323;DHT22;38263;52.920;6.238;2022-10-20T08:54:40;11.50;99.90
52323;DHT22;38263;52.920;6.238;2022-10-20T08:59:53;11.40;99.90
52323;DHT22;38263;52.920;6.238;2022-10-20T09:07:32;11.40;99.90
52323;DHT22;38263;52.920;6.238;2022-10-20T09:10:29;11.30;99.90
52323;DHT22;38263;52.920;6.238;2022-10-20T09:12:55;11.00;99.90
52323;DHT22;38263;52.920;6.238;2022-10-20T09:15:21;10.90;99.90
52323;DHT22;38263;52.920;6.238;2022-10-20T09:17:54;10.70;99.90
52323;DHT22;38263;52.920;6.238;2022-10-20T09:20:24;10.90;99.90
52323;DHT22;38263;52.920;6.238;2022-10-20T09:25:20;10.60;99.90
52323;DHT22;38263;52.920;6.238;2022-10-20T09:27:49;10.50;99.90
52323;DHT22;38263;52.920;6.238;2022-10-20T09:30:24;10.80;99.90
52323;DHT22;38263;52.920;6.238;2022-10-20T09:35:29;10.70;99.90
52323;DHT22;38263;52.920;6.238;2022-10-20T09:40:27;11.10;99.90
52323;DHT22;38263;52.920;6.238;2022-10-20T09:43:00;12.20;99.90
52323;DHT22;38263;52.920;6.238;2022-10-20T09:45:31;13.40;99.90
52323;DHT22;38263;52.920;6.238;2022-10-20T09:48:06;13.90;99.90
52323;DHT22;38263;52.920;6.238;2022-10-20T09:53:16;14.30;99.90
52323;DHT22;38263;52.920;6.238;2022-10-20T09:55:47;14.40;99.90
52323;DHT22;38263;52.920;6.238;2022-10-20T09:58:30;14.50;99.90
52323;DHT22;38263;52.920;6.238;2022-10-20T10:01:06;14.60;99.90
52323;DHT22;38263;52.920;6.238;2022-10-20T10:03:46;14.40;99.90
52323;DHT22;38263;52.920;6.238;2022-10-20T10:06:25;14.10;99.90
52323;DHT22;38263;52.920;6.238;2022-10-20T10:08:51;13.70;99.90
52323;DHT22;38263;52.920;6.238;2022-10-20T10:11:19;13.60;99.90
52323;DHT22;38263;52.920;6.238;2022-10-20T10:13:47;13.50;99.90
52323;DHT22;38263;52.920;6.238;2022-10-20T10:16:19;13.30;99.90
52323;DHT22;38263;52.920;6.238;2022-10-20T10:18:56;13.30;99.90
52323;DHT22;38263;52.920;6.238;2022-10-20T10:23:58;13.30;99.90
52323;DHT22;38263;52.920;6.238;2022-10-20T10:29:04;13.30;99.90
52323;DHT22;38263;52.920;6.238;2022-10-20T10:31:49;13.40;99.90
52323;DHT22;38263;52.920;6.238;2022-10-20T10:36:40;13.30;99.90
52323;DHT22;38263;52.920;6.238;2022-10-20T10:39:10;13.50;99.90
52323;DHT22;38263;52.920;6.238;2022-10-20T10:41:51;13.40;99.90
52323;DHT22;38263;52.920;6.238;2022-10-20T10:44:42;13.30;99.90
52323;DHT22;38263;52.920;6.238;2022-10-20T10:50:35;13.20;99.90
52323;DHT22;38263;52.920;6.238;2022-10-20T10:53:12;13.30;99.90
52323;DHT22;38263;52.920;6.238;2022-10-20T10:58:27;13.20;99.90
52323;DHT22;38263;52.920;6.238;2022-10-20T11:01:16;13.10;99.90
52323;DHT22;38263;52.920;6.238;2022-10-20T11:03:57;13.00;99.90
52323;DHT22;38263;52.920;6.238;2022-10-20T11:06:43;12.90;99.90
52323;DHT22;38263;52.920;6.238;2022-10-20T11:12:36;12.80;99.90
52323;DHT22;38263;52.920;6.238;2022-10-20T11:15:29;12.80;99.90
52323;DHT22;38263;52.920;6.238;2022-10-20T11:23:52;12.80;99.90
52323;DHT22;38263;52.920;6.238;2022-10-20T11:26:24;12.70;99.90
52323;DHT22;38263;52.920;6.238;2022-10-20T11:28:52;12.70;99.90
52323;DHT22;38263;52.920;6.238;2022-10-20T11:39:45;12.80;99.90
52323;DHT22;38263;52.920;6.238;2022-10-20T11:44:45;12.80;99.90
52323;DHT22;38263;52.920;6.238;2022-10-20T11:47:15;12.90;99.90
52323;DHT22;38263;52.920;6.238;2022-10-20T11:49:42;12.80;99.90
52323;DHT22;38263;52.920;6.238;2022-10-20T11:52:22;12.80;99.90
52323;DHT22;38263;52.920;6.238;2022-10-20T11:55:10;12.80;99.90
52323;DHT22;38263;52.920;6.238;2022-10-20T11:58:04;12.70;99.90
52323;DHT22;38263;52.920;6.238;2022-10-20T12:01:27;12.80;99.90
52323;DHT22;38263;52.920;6.238;2022-10-20T12:12:01;13.00;99.90
52323;DHT22;38263;52.920;6.238;2022-10-20T12:14:41;12.80;99.90
52323;DHT22;38263;52.920;6.238;2022-10-20T12:17:24;12.70;99.90
52323;DHT22;38263;52.920;6.238;2022-10-20T12:39:05;12.50;99.90
52323;DHT22;38263;52.920;6.238;2022-10-20T12:41:34;12.40;99.90
52323;DHT22;38263;52.920;6.238;2022-10-20T12:44:05;12.60;99.90
52323;DHT22;38263;52.920;6.238;2022-10-20T12:46:34;12.50;99.90
52323;DHT22;38263;52.920;6.238;2022-10-20T12:49:05;12.40;99.90
52323;DHT22;38263;52.920;6.238;2022-10-20T12:51:36;12.50;99.90
52323;DHT22;38263;52.920;6.238;2022-10-20T12:54:06;11.90;99.90
52323;DHT22;38263;52.920;6.238;2022-10-20T12:56:39;12.40;99.90
52323;DHT22;38263;52.920;6.238;2022-10-20T13:10:34;12.20;99.90
52323;DHT22;38263;52.920;6.238;2022-10-20T13:26:25;12.10;99.90
52323;DHT22;38263;52.920;6.238;2022-10-20T13:28:54;12.20;99.90
52323;DHT22;38263;52.920;6.238;2022-10-20T13:39:05;12.40;99.90
52323;DHT22;38263;52.920;6.238;2022-10-20T13:41:48;12.10;99.90
52323;DHT22;38263;52.920;6.238;2022-10-20T13:44:42;12.10;99.90
52323;DHT22;38263;52.920;6.238;2022-10-20T13:52:36;12.30;99.90
52323;DHT22;38263;52.920;6.238;2022-10-20T13:55:04;12.20;99.90
52323;DHT22;38263;52.920;6.238;2022-10-20T13:57:32;12.20;99.90
52323;DHT22;38263;52.920;6.238;2022-10-20T14:02:52;12.10;99.90
52323;DHT22;38263;52.920;6.238;2022-10-20T14:05:20;12.30;99.90
52323;DHT22;38263;52.920;6.238;2022-10-20T14:07:46;12.30;99.90
52323;DHT22;38263;52.920;6.238;2022-10-20T14:10:22;12.20;99.90
52323;DHT22;38263;52.920;6.238;2022-10-20T14:12:48;12.20;99.90
52323;DHT22;38263;52.920;6.238;2022-10-20T14:15:23;12.20;99.90
52323;DHT22;38263;52.920;6.238;2022-10-20T14:17:55;12.30;99.90
52323;DHT22;38263;52.920;6.238;2022-10-20T14:20:22;12.30;99.90
52323;DHT22;38263;52.920;6.238;2022-10-20T14:22:48;12.30;99.90
52323;DHT22;38263;52.920;6.238;2022-10-20T14:25:15;12.30;99.90
52323;DHT22;38263;52.920;6.238;2022-10-20T14:27:41;12.40;99.90
52323;DHT22;38263;52.920;6.238;2022-10-20T14:30:12;12.40;99.90
52323;DHT22;38263;52.920;6.238;2022-10-20T14:32:39;12.50;99.90
52323;DHT22;38263;52.920;6.238;2022-10-20T14:38:22;12.70;99.90
52323;DHT22;38263;52.920;6.238;2022-10-20T14:40:53;12.40;99.90
52323;DHT22;38263;52.920;6.238;2022-10-20T14:43:35;12.50;99.90
52323;DHT22;38263;52.920;6.238;2022-10-20T14:46:04;12.40;99.90
52323;DHT22;38263;52.920;6.238;2022-10-20T14:48:40;12.40;99.90
52323;DHT22;38263;52.920;6.238;2022-10-20T14:51:29;12.40;99.90
52323;DHT22;38263;52.920;6.238;2022-10-20T14:59:22;12.30;99.90
52323;DHT22;38263;52.920;6.238;2022-10-20T15:02:00;12.50;99.90
52323;DHT22;38263;52.920;6.238;2022-10-20T15:04:28;12.60;99.90
52323;DHT22;38263;52.920;6.238;2022-10-20T15:09:41;12.60;99.90
52323;DHT22;38263;52.920;6.238;2022-10-20T15:12:20;12.60;99.90
52323;DHT22;38263;52.920;6.238;2022-10-20T15:14:49;12.60;99.90
52323;DHT22;38263;52.920;6.238;2022-10-20T15:17:51;12.70;99.90
52323;DHT22;38263;52.920;6.238;2022-10-20T15:25:31;12.70;99.90
52323;DHT22;38263;52.920;6.238;2022-10-20T15:27:58;12.80;99.90
52323;DHT22;38263;52.920;6.238;2022-10-20T15:30:24;12.70;99.90
52323;DHT22;38263;52.920;6.238;2022-10-20T15:32:51;12.70;99.90
52323;DHT22;38263;52.920;6.238;2022-10-20T15:35:19;12.60;99.90
52323;DHT22;38263;52.920;6.238;2022-10-20T15:37:53;12.50;99.90
52323;DHT22;38263;52.920;6.238;2022-10-20T15:40:20;12.80;99.90
52323;DHT22;38263;52.920;6.238;2022-10-20T15:47:40;12.90;99.90
52323;DHT22;38263;52.920;6.238;2022-10-20T15:50:06;12.90;99.90
52323;DHT22;38263;52.920;6.238;2022-10-20T15:52:31;12.80;99.90
52323;DHT22;38263;52.920;6.238;2022-10-20T15:54:57;12.70;99.90
52323;DHT22;38263;52.920;6.238;2022-10-20T15:57:22;12.80;99.90
52323;DHT22;38263;52.920;6.238;2022-10-20T15:59:48;12.80;99.90
52323;DHT22;38263;52.920;6.238;2022-10-20T16:02:13;12.80;99.90
52323;DHT22;38263;52.920;6.238;2022-10-20T16:04:39;12.80;99.90
52323;DHT22;38263;52.920;6.238;2022-10-20T16:07:04;13.10;99.90
52323;DHT22;38263;52.920;6.238;2022-10-20T16:09:30;12.90;99.90
52323;DHT22;38263;52.920;6.238;2022-10-20T16:11:55;12.90;99.90
52323;DHT22;38263;52.920;6.238;2022-10-20T16:14:21;13.10;99.90
52323;DHT22;38263;52.920;6.238;2022-10-20T16:16:47;13.20;99.90
52323;DHT22;38263;52.920;6.238;2022-10-20T16:19:12;13.20;99.90
52323;DHT22;38263;52.920;6.238;2022-10-20T16:21:38;13.20;99.90
52323;DHT22;38263;52.920;6.238;2022-10-20T16:24:03;13.10;99.90
52323;DHT22;38263;52.920;6.238;2022-10-20T16:26:29;13.10;99.90
52323;DHT22;38263;52.920;6.238;2022-10-20T16:28:55;13.10;99.90
52323;DHT22;38263;52.920;6.238;2022-10-20T16:31:21;13.10;99.90
52323;DHT22;38263;52.920;6.238;2022-10-20T16:36:14;13.10;99.90
52323;DHT22;38263;52.920;6.238;2022-10-20T16:38:40;13.20;99.90
52323;DHT22;38263;52.920;6.238;2022-10-20T16:41:09;13.00;99.90
52323;DHT22;38263;52.920;6.238;2022-10-20T16:43:39;13.00;99.90
52323;DHT22;38263;52.920;6.238;2022-10-20T16:46:06;13.10;99.90
52323;DHT22;38263;52.920;6.238;2022-10-20T16:48:32;13.20;99.90
52323;DHT22;38263;52.920;6.238;2022-10-20T16:50:58;13.20;99.90
52323;DHT22;38263;52.920;6.238;2022-10-20T16:55:56;13.20;99.90
52323;DHT22;38263;52.920;6.238;2022-10-20T16:58:22;13.30;99.90
52323;DHT22;38263;52.920;6.238;2022-10-20T17:01:01;13.30;99.90
52323;DHT22;38263;52.920;6.238;2022-10-20T17:03:28;13.50;99.90
52323;DHT22;38263;52.920;6.238;2022-10-20T17:06:03;13.40;99.90
52323;DHT22;38263;52.920;6.238;2022-10-20T17:08:29;13.40;99.90
52323;DHT22;38263;52.920;6.238;2022-10-20T17:10:58;13.40;99.90
52323;DHT22;38263;52.920;6.238;2022-10-20T17:13:24;13.40;99.90
52323;DHT22;38263;52.920;6.238;2022-10-20T17:15:50;13.50;99.90
52323;DHT22;38263;52.920;6.238;2022-10-20T17:18:16;13.40;99.90
52323;DHT22;38263;52.920;6.238;2022-10-20T17:20:42;13.50;99.90
52323;DHT22;38263;52.920;6.238;2022-10-20T17:23:08;13.60;99.90
52323;DHT22;38263;52.920;6.238;2022-10-20T17:25:33;13.60;99.90
52323;DHT22;38263;52.920;6.238;2022-10-20T17:27:59;13.80;99.90
52323;DHT22;38263;52.920;6.238;2022-10-20T17:30:26;13.60;99.90
52323;DHT22;38263;52.920;6.238;2022-10-20T17:35:19;13.70;99.90
52323;DHT22;38263;52.920;6.238;2022-10-20T17:37:45;13.70;99.90
52323;DHT22;38263;52.920;6.238;2022-10-20T17:40:10;13.70;99.90
52323;DHT22;38263;52.920;6.238;2022-10-20T17:42:36;13.70;99.90
52323;DHT22;38263;52.920;6.238;2022-10-20T17:45:01;13.70;99.90
52323;DHT22;38263;52.920;6.238;2022-10-20T17:47:27;14.80;99.90
52323;DHT22;38263;52.920;6.238;2022-10-20T17:49:52;13.70;99.90
52323;DHT22;38263;52.920;6.238;2022-10-20T17:52:18;13.80;99.90
52323;DHT22;38263;52.920;6.238;2022-10-20T17:54:44;13.70;99.90
52323;DHT22;38263;52.920;6.238;2022-10-20T17:57:09;13.60;99.90
52323;DHT22;38263;52.920;6.238;2022-10-20T17:59:35;13.80;99.90
52323;DHT22;38263;52.920;6.238;2022-10-20T18:02:00;13.80;99.90
52323;DHT22;38263;52.920;6.238;2022-10-20T18:04:26;13.70;99.90
52323;DHT22;38263;52.920;6.238;2022-10-20T18:09:18;13.80;99.90
52323;DHT22;38263;52.920;6.238;2022-10-20T18:11:46;13.80;99.90
52323;DHT22;38263;52.920;6.238;2022-10-20T18:14:12;13.80;99.90
52323;DHT22;38263;52.920;6.238;2022-10-20T18:16:39;13.80;99.90
52323;DHT22;38263;52.920;6.238;2022-10-20T18:19:06;13.80;99.90
52323;DHT22;38263;52.920;6.238;2022-10-20T18:24:00;13.80;99.90
52323;DHT22;38263;52.920;6.238;2022-10-20T18:26:27;13.70;99.90
52323;DHT22;38263;52.920;6.238;2022-10-20T18:28:53;13.70;99.90
52323;DHT22;38263;52.920;6.238;2022-10-20T18:31:21;13.80;99.90
52323;DHT22;38263;52.920;6.238;2022-10-20T18:33:49;13.70;99.90
52323;DHT22;38263;52.920;6.238;2022-10-20T18:36:16;13.50;99.90
52323;DHT22;38263;52.920;6.238;2022-10-20T18:38:43;13.70;99.90
52323;DHT22;38263;52.920;6.238;2022-10-20T18:41:14;13.80;99.90
52323;DHT22;38263;52.920;6.238;2022-10-20T18:46:06;13.70;99.90
52323;DHT22;38263;52.920;6.238;2022-10-20T18:48:34;13.60;99.90
52323;DHT22;38263;52.920;6.238;2022-10-20T18:51:01;13.80;99.90
52323;DHT22;38263;52.920;6.238;2022-10-20T18:53:28;13.70;99.90
52323;DHT22;38263;52.920;6.238;2022-10-20T18:56:02;13.70;99.90
52323;DHT22;38263;52.920;6.238;2022-10-20T18:58:29;13.70;99.90
52323;DHT22;38263;52.920;6.238;2022-10-20T19:00:59;13.80;99.90
52323;DHT22;38263;52.920;6.238;2022-10-20T19:03:26;13.50;99.90
52323;DHT22;38263;52.920;6.238;2022-10-20T19:06:03;13.70;99.90
52323;DHT22;38263;52.920;6.238;2022-10-20T19:08:29;13.60;99.90
52323;DHT22;38263;52.920;6.238;2022-10-20T19:10:55;13.80;99.90
52323;DHT22;38263;52.920;6.238;2022-10-20T19:13:24;13.60;99.90
52323;DHT22;38263;52.920;6.238;2022-10-20T19:15:50;13.60;99.90
52323;DHT22;38263;52.920;6.238;2022-10-20T19:18:16;13.50;99.90
52323;DHT22;38263;52.920;6.238;2022-10-20T19:25:33;13.50;99.90
52323;DHT22;38263;52.920;6.238;2022-10-20T19:27:59;13.60;99.90
52323;DHT22;38263;52.920;6.238;2022-10-20T19:30:24;13.40;99.90
52323;DHT22;38263;52.920;6.238;2022-10-20T19:32:50;13.60;99.90
52323;DHT22;38263;52.920;6.238;2022-10-20T19:42:36;13.50;99.90
52323;DHT22;38263;52.920;6.238;2022-10-20T19:45:03;13.40;99.90
52323;DHT22;38263;52.920;6.238;2022-10-20T20:11:53;13.60;99.90
52323;DHT22;38263;52.920;6.238;2022-10-20T20:14:19;13.40;99.90
52323;DHT22;38263;52.920;6.238;2022-10-20T20:16:45;13.50;99.90
52323;DHT22;38263;52.920;6.238;2022-10-20T20:19:11;13.40;99.90
52323;DHT22;38263;52.920;6.238;2022-10-20T20:24:04;13.50;99.90
52323;DHT22;38263;52.920;6.238;2022-10-20T20:26:34;13.30;99.90
52323;DHT22;38263;52.920;6.238;2022-10-20T20:31:26;13.30;99.90
52323;DHT22;38263;52.920;6.238;2022-10-20T20:41:18;13.40;99.90
52323;DHT22;38263;52.920;6.238;2022-10-20T20:43:45;13.30;99.90
52323;DHT22;38263;52.920;6.238;2022-10-20T20:46:15;13.20;99.90
52323;DHT22;38263;52.920;6.238;2022-10-20T20:51:07;13.30;99.90
52323;DHT22;38263;52.920;6.238;2022-10-20T20:53:37;13.30;99.90
52323;DHT22;38263;52.920;6.238;2022-10-20T20:58:31;13.20;99.90
52323;DHT22;38263;52.920;6.238;2022-10-20T21:01:02;13.10;99.90
52323;DHT22;38263;52.920;6.238;2022-10-20T21:08:20;13.20;99.90
52323;DHT22;38263;52.920;6.238;2022-10-20T21:10:46;13.20;99.90